Time;durP1;ratioP1;P1;durP2;ratioP2;P2;SDS_P1;SDS_P2;PMS_P1;PMS_P2;Temp;Humidity;BMP_temperature;BMP_pressure;BME280_temperature;BME280_humidity;BME280_pressure;Samples;Min_cycle;Max_cycle;Signal;HPM_P1;HPM_P2
2023/04/27 00:01:14;;;;;;;2.43;1.50;;;5.50;99.90;;;;;;5044190;28;20783;-82
2023/04/27 00:03:41;;;;;;;1.63;1.53;;;5.50;99.90;;;;;;5040865;28;20217;-81
2023/04/27 00:06:08;;;;;;;1.03;0.83;;;5.50;99.90;;;;;;5050806;28;20286;-81
2023/04/27 00:08:34;;;;;;;1.60;1.50;;;5.40;99.90;;;;;;5050302;28;20312;-81
2023/04/27 00:11:00;;;;;;;12.37;1.90;;;5.40;99.90;;;;;;5040597;28;20615;-81
2023/04/27 00:13:26;;;;;;;1.40;1.30;;;5.40;99.90;;;;;;5044899;28;20214;-82
2023/04/27 00:15:51;;;;;;;1.50;1.13;;;5.40;99.90;;;;;;5053252;28;20232;-81
2023/04/27 00:18:18;;;;;;;0.63;0.63;;;5.30;99.90;;;;;;5045737;27;20736;-82
2023/04/27 00:20:43;;;;;;;0.83;0.83;;;5.30;99.90;;;;;;5045660;28;20190;-82
2023/04/27 00:23:09;;;;;;;2.83;2.47;;;5.30;99.90;;;;;;5045573;28;20768;-82
2023/04/27 00:25:36;;;;;;;1.37;1.27;;;5.30;99.90;;;;;;5046676;28;20236;-81
2023/04/27 00:28:01;;;;;;;1.37;1.03;;;5.20;99.90;;;;;;5046596;28;20214;-81
2023/04/27 00:30:27;;;;;;;0.90;0.90;;;5.20;99.90;;;;;;5043674;28;20224;-82
2023/04/27 00:32:53;;;;;;;1.60;0.97;;;5.20;99.90;;;;;;5040192;28;20263;-82
2023/04/27 00:35:19;;;;;;;1.20;1.10;;;5.20;99.90;;;;;;5048052;28;20197;-81
2023/04/27 00:37:45;;;;;;;1.93;1.83;;;5.20;99.90;;;;;;5048286;28;20283;-81
2023/04/27 00:40:11;;;;;;;0.53;0.53;;;5.20;99.90;;;;;;5051314;28;20222;-82
2023/04/27 00:42:37;;;;;;;1.40;0.80;;;5.20;99.90;;;;;;5047056;28;20642;-81
2023/04/27 00:45:04;;;;;;;1.63;1.53;;;5.10;99.90;;;;;;5045757;28;20218;-83
2023/04/27 00:47:31;;;;;;;1.00;0.90;;;5.10;99.90;;;;;;5046621;28;20202;-82
2023/04/27 00:49:57;;;;;;;1.00;1.00;;;5.10;99.90;;;;;;5048901;28;20700;-82
2023/04/27 00:52:23;;;;;;;1.80;1.47;;;5.00;99.90;;;;;;5048833;28;20221;-82
2023/04/27 00:54:50;;;;;;;0.83;0.83;;;5.00;99.90;;;;;;5049086;28;20216;-82
2023/04/27 00:57:17;;;;;;;1.13;1.13;;;4.90;99.90;;;;;;5045641;28;20287;-81
2023/04/27 00:59:42;;;;;;;1.67;1.23;;;4.90;99.90;;;;;;5046203;28;20189;-81
2023/04/27 01:02:10;;;;;;;1.00;1.00;;;4.80;99.90;;;;;;5047847;28;20218;-82
2023/04/27 01:04:36;;;;;;;0.40;0.40;;;4.80;99.90;;;;;;5045467;28;20307;-82
2023/04/27 01:07:02;;;;;;;1.13;1.00;;;4.80;99.90;;;;;;5040516;28;21043;-82
2023/04/27 01:09:28;;;;;;;1.53;1.43;;;4.80;99.90;;;;;;5046917;28;20228;-81
2023/04/27 01:11:54;;;;;;;1.20;1.17;;;4.80;99.90;;;;;;5040416;28;20664;-83
2023/04/27 01:14:20;;;;;;;0.50;0.50;;;4.80;99.90;;;;;;5049758;28;20295;-82
2023/04/27 01:16:46;;;;;;;1.40;1.40;;;4.80;99.90;;;;;;5056122;27;20312;-81
2023/04/27 01:19:12;;;;;;;1.17;1.17;;;4.80;99.90;;;;;;5048254;28;20253;-82
2023/04/27 01:21:38;;;;;;;1.33;1.23;;;4.70;99.90;;;;;;5051548;28;20711;-81
2023/04/27 01:24:07;;;;;;;0.93;0.93;;;4.80;99.90;;;;;;5050096;28;20192;-81
2023/04/27 01:26:33;;;;;;;3.40;0.70;;;4.80;99.90;;;;;;5050066;28;20229;-81
2023/04/27 01:28:58;;;;;;;1.23;1.23;;;4.80;99.90;;;;;;5051934;28;20229;-82
2023/04/27 01:31:24;;;;;;;1.20;1.10;;;4.80;99.90;;;;;;5050630;28;20221;-80
2023/04/27 01:33:50;;;;;;;2.27;2.07;;;4.80;99.90;;;;;;5046543;28;20267;-81
2023/04/27 01:36:16;;;;;;;0.87;0.87;;;4.80;99.90;;;;;;5047740;28;20645;-81
2023/04/27 01:38:42;;;;;;;1.83;1.73;;;4.90;99.90;;;;;;5046096;28;20617;-81
2023/04/27 01:41:08;;;;;;;1.93;1.83;;;4.90;99.90;;;;;;5041681;28;20226;-82
2023/04/27 01:43:35;;;;;;;0.93;0.83;;;5.00;99.90;;;;;;5055728;28;20898;-81
2023/04/27 01:46:10;;;;;;;2.67;1.23;;;5.00;99.90;;;;;;5051591;28;20233;-81
2023/04/27 01:48:36;;;;;;;2.60;0.80;;;5.00;99.90;;;;;;5060207;28;20345;-81
2023/04/27 01:51:02;;;;;;;1.47;1.37;;;5.10;99.90;;;;;;5049703;28;20186;-81
2023/04/27 01:53:29;;;;;;;1.43;1.37;;;5.10;99.90;;;;;;5047756;28;20801;-81
2023/04/27 01:55:55;;;;;;;1.07;1.00;;;5.10;99.90;;;;;;5051141;28;20236;-82
2023/04/27 01:58:21;;;;;;;2.33;1.07;;;5.10;99.90;;;;;;5050407;28;20233;-82
2023/04/27 02:00:47;;;;;;;4.47;1.80;;;5.20;99.90;;;;;;5040858;28;20218;-83
2023/04/27 02:03:13;;;;;;;1.33;1.33;;;5.20;99.90;;;;;;5041995;28;20639;-82
2023/04/27 02:05:40;;;;;;;1.33;1.27;;;5.30;99.90;;;;;;5043119;28;20197;-82
2023/04/27 02:08:06;;;;;;;1.87;1.17;;;5.30;99.90;;;;;;5049010;27;20350;-81
2023/04/27 02:10:33;;;;;;;1.93;1.63;;;5.30;99.90;;;;;;5045789;28;20564;-81
2023/04/27 02:12:59;;;;;;;3.53;2.50;;;5.30;99.90;;;;;;5046657;28;20213;-81
2023/04/27 02:15:25;;;;;;;1.40;1.30;;;5.30;99.90;;;;;;5050802;28;20679;-83
2023/04/27 02:17:50;;;;;;;2.23;2.03;;;5.30;99.90;;;;;;5046897;27;20217;-81
2023/04/27 02:20:16;;;;;;;1.20;1.10;;;5.30;99.90;;;;;;5044096;28;20602;-82
2023/04/27 02:22:43;;;;;;;1.23;1.23;;;5.30;99.90;;;;;;5044419;28;20304;-83
2023/04/27 02:25:10;;;;;;;1.33;1.23;;;5.20;99.90;;;;;;5050014;28;20343;-83
2023/04/27 02:27:37;;;;;;;1.57;1.37;;;5.30;99.90;;;;;;5049795;27;20240;-82
2023/04/27 02:30:05;;;;;;;1.03;1.03;;;5.30;99.90;;;;;;5045767;28;20216;-81
2023/04/27 02:32:30;;;;;;;2.10;2.00;;;5.20;99.90;;;;;;5046099;28;20194;-81
2023/04/27 02:34:56;;;;;;;1.07;1.07;;;5.20;99.90;;;;;;5048345;27;20229;-81
2023/04/27 02:37:22;;;;;;;3.13;1.57;;;5.20;99.90;;;;;;5049634;28;20222;-82
2023/04/27 02:39:47;;;;;;;1.50;1.30;;;5.10;99.90;;;;;;5055842;28;20304;-82
2023/04/27 02:42:13;;;;;;;1.73;1.63;;;5.10;99.90;;;;;;5051174;28;20663;-82
2023/04/27 02:44:39;;;;;;;3.17;1.80;;;5.10;99.90;;;;;;5049036;28;20228;-81
2023/04/27 02:47:05;;;;;;;1.37;1.23;;;5.10;99.90;;;;;;5047826;28;20437;-80
2023/04/27 02:49:31;;;;;;;1.77;1.63;;;5.10;99.90;;;;;;5040892;28;20683;-81
2023/04/27 02:51:56;;;;;;;6.03;1.80;;;5.10;99.90;;;;;;5041487;28;21169;-80
2023/04/27 02:54:22;;;;;;;2.27;1.73;;;5.00;99.90;;;;;;5049473;28;20236;-81
2023/04/27 02:56:48;;;;;;;2.70;1.03;;;5.00;99.90;;;;;;5049830;28;20184;-81
2023/04/27 02:59:13;;;;;;;1.53;1.43;;;5.00;99.90;;;;;;5047465;28;20221;-83
2023/04/27 03:01:39;;;;;;;1.50;1.40;;;4.90;99.90;;;;;;5048518;28;20218;-81
2023/04/27 03:04:05;;;;;;;1.00;1.00;;;4.90;99.90;;;;;;5047859;28;20234;-82
2023/04/27 03:06:31;;;;;;;7.87;1.63;;;5.00;99.90;;;;;;5048897;28;20229;-81
2023/04/27 03:09:00;;;;;;;1.67;1.07;;;5.00;99.90;;;;;;5043929;28;20226;-82
2023/04/27 03:11:25;;;;;;;1.23;1.17;;;5.00;99.90;;;;;;5042595;28;20198;-81
2023/04/27 03:13:51;;;;;;;2.13;1.93;;;5.00;99.90;;;;;;5048642;28;20221;-82
2023/04/27 03:16:17;;;;;;;2.80;1.70;;;4.90;99.90;;;;;;5040556;28;20212;-81
2023/04/27 03:18:42;;;;;;;1.90;1.17;;;4.90;99.90;;;;;;5046993;28;20245;-83
2023/04/27 03:21:10;;;;;;;1.20;1.20;;;4.80;99.90;;;;;;5044392;28;20319;-82
2023/04/27 03:23:35;;;;;;;1.23;1.23;;;4.70;99.90;;;;;;5045991;28;20198;-82
2023/04/27 03:26:12;;;;;;;1.10;1.10;;;4.70;99.90;;;;;;5039885;28;20233;-81
2023/04/27 03:28:38;;;;;;;1.00;0.90;;;4.70;99.90;;;;;;5045417;28;20217;-81
2023/04/27 03:31:05;;;;;;;4.00;1.93;;;4.70;99.90;;;;;;5046951;28;20217;-81
2023/04/27 03:33:32;;;;;;;2.07;1.80;;;4.50;99.90;;;;;;5050352;28;20263;-81
2023/04/27 03:35:58;;;;;;;1.33;1.00;;;4.50;99.90;;;;;;5032312;27;20501;-82
2023/04/27 03:38:25;;;;;;;1.77;1.67;;;4.40;99.90;;;;;;5050170;28;20203;-81
2023/04/27 03:40:51;;;;;;;0.60;0.60;;;4.30;99.90;;;;;;5056185;27;20690;-80
2023/04/27 03:43:17;;;;;;;1.50;1.40;;;4.30;99.90;;;;;;5052155;28;20220;-82
2023/04/27 03:45:43;;;;;;;1.70;1.60;;;4.20;99.90;;;;;;5048588;28;20240;-81
2023/04/27 03:48:09;;;;;;;0.50;0.50;;;4.20;99.90;;;;;;5046636;28;20186;-81
2023/04/27 03:50:34;;;;;;;2.03;1.93;;;4.20;99.90;;;;;;5051154;28;20184;-81
2023/04/27 03:53:00;;;;;;;1.73;1.63;;;4.20;99.90;;;;;;5045839;28;20278;-81
2023/04/27 03:55:26;;;;;;;1.00;1.00;;;4.20;99.90;;;;;;5047378;28;20224;-81
2023/04/27 03:57:52;;;;;;;1.77;1.30;;;4.20;99.90;;;;;;5049001;28;20224;-82
2023/04/27 04:00:18;;;;;;;0.93;0.93;;;4.20;99.90;;;;;;5046126;28;20221;-83
2023/04/27 04:02:44;;;;;;;1.70;0.97;;;4.20;99.90;;;;;;5048761;28;20214;-82
2023/04/27 04:05:11;;;;;;;2.87;2.07;;;4.20;99.90;;;;;;5045947;28;20249;-81
2023/04/27 04:07:37;;;;;;;1.53;1.43;;;4.20;99.90;;;;;;5044787;28;20558;-81
2023/04/27 04:10:03;;;;;;;1.67;1.57;;;4.10;99.90;;;;;;5040135;28;21073;-81
2023/04/27 04:12:29;;;;;;;1.90;1.40;;;4.10;99.90;;;;;;5039967;28;20285;-81
2023/04/27 04:14:55;;;;;;;6.97;1.17;;;4.10;99.90;;;;;;5040968;27;20197;-81
2023/04/27 04:17:21;;;;;;;1.80;1.27;;;4.00;99.90;;;;;;5049284;28;20224;-82
2023/04/27 04:19:46;;;;;;;1.07;1.07;;;4.00;99.90;;;;;;5046006;28;20305;-81
2023/04/27 04:22:12;;;;;;;1.40;1.30;;;3.90;99.90;;;;;;5050241;28;20233;-80
2023/04/27 04:24:39;;;;;;;1.33;1.23;;;3.90;99.90;;;;;;5043700;28;20561;-81
2023/04/27 04:27:05;;;;;;;2.33;2.23;;;3.90;99.90;;;;;;5041274;28;20231;-81
2023/04/27 04:29:31;;;;;;;2.47;1.23;;;3.90;99.90;;;;;;5049138;28;20272;-81
2023/04/27 04:31:57;;;;;;;2.00;1.20;;;3.90;99.90;;;;;;5045621;28;20549;-81
2023/04/27 04:34:23;;;;;;;0.77;0.77;;;3.90;99.90;;;;;;5045676;27;20692;-81
2023/04/27 04:36:50;;;;;;;2.30;1.93;;;3.90;99.90;;;;;;5047221;28;20226;-81
2023/04/27 04:39:21;;;;;;;1.43;1.33;;;4.00;99.90;;;;;;5040731;28;20614;-81
2023/04/27 04:41:50;;;;;;;1.10;1.10;;;4.00;99.90;;;;;;5047819;28;20190;-80
2023/04/27 04:44:16;;;;;;;10.13;2.10;;;4.00;99.90;;;;;;5044766;28;20214;-81
2023/04/27 04:46:42;;;;;;;1.30;1.20;;;4.10;99.90;;;;;;5044955;27;20240;-82
2023/04/27 04:49:08;;;;;;;1.53;1.43;;;4.20;99.90;;;;;;5044298;28;20221;-81
2023/04/27 04:51:34;;;;;;;1.43;1.03;;;4.30;99.90;;;;;;5046993;28;20222;-82
2023/04/27 04:54:00;;;;;;;1.53;1.43;;;4.40;99.90;;;;;;5041685;28;20182;-81
2023/04/27 04:56:26;;;;;;;1.93;1.70;;;4.50;99.90;;;;;;5040765;28;20968;-80
2023/04/27 04:58:51;;;;;;;3.43;1.40;;;4.60;99.90;;;;;;5046296;28;20213;-81
2023/04/27 05:01:17;;;;;;;1.20;1.10;;;4.60;99.90;;;;;;5048461;28;20300;-81
2023/04/27 05:03:43;;;;;;;0.97;0.87;;;4.80;99.90;;;;;;5046747;28;20690;-82
2023/04/27 05:06:08;;;;;;;1.40;1.40;;;4.80;99.90;;;;;;5045744;27;20236;-81
2023/04/27 05:08:34;;;;;;;1.47;0.97;;;4.90;99.90;;;;;;5047166;28;20567;-82
2023/04/27 05:11:00;;;;;;;0.97;0.97;;;4.90;99.90;;;;;;5040741;28;20710;-82
2023/04/27 05:13:26;;;;;;;2.47;0.90;;;5.00;99.90;;;;;;5043455;28;20221;-82
2023/04/27 05:15:52;;;;;;;2.23;1.67;;;5.30;99.90;;;;;;5045268;28;20224;-82
2023/04/27 05:18:18;;;;;;;1.30;1.03;;;6.20;99.90;;;;;;5061342;28;20244;-80
2023/04/27 05:20:44;;;;;;;2.47;2.07;;;7.30;99.90;;;;;;5053664;28;20332;-81
2023/04/27 05:23:10;;;;;;;1.97;1.63;;;8.40;99.90;;;;;;5049325;28;20224;-81
2023/04/27 05:25:42;;;;;;;1.00;1.00;;;9.80;99.90;;;;;;5044809;28;20690;-81
2023/04/27 05:28:10;;;;;;;1.73;1.67;;;10.70;99.90;;;;;;5038448;28;20214;-80
2023/04/27 05:30:36;;;;;;;1.23;1.10;;;12.20;99.90;;;;;;5041011;28;20225;-81
2023/04/27 05:33:03;;;;;;;1.83;1.50;;;13.20;99.90;;;;;;5044104;27;20264;-81
2023/04/27 05:35:30;;;;;;;1.60;1.50;;;14.20;99.90;;;;;;5042301;28;20650;-81
2023/04/27 05:37:56;;;;;;;2.67;1.53;;;14.60;99.90;;;;;;5048882;28;20240;-82
2023/04/27 05:40:22;;;;;;;1.30;0.93;;;15.50;99.90;;;;;;5037479;28;20220;-82
2023/04/27 05:42:48;;;;;;;2.73;1.87;;;15.00;99.90;;;;;;5045026;28;20221;-82
2023/04/27 05:45:14;;;;;;;1.67;1.43;;;14.00;99.90;;;;;;5046348;27;20283;-81
2023/04/27 05:47:41;;;;;;;1.17;1.10;;;13.60;99.90;;;;;;5046967;28;20272;-82
2023/04/27 05:50:07;;;;;;;2.33;1.50;;;12.60;99.90;;;;;;5041826;28;20226;-80
2023/04/27 05:52:32;;;;;;;3.37;2.13;;;13.60;99.90;;;;;;5041919;28;20240;-81
2023/04/27 05:54:58;;;;;;;2.00;1.83;;;14.90;99.90;;;;;;5043517;28;20268;-82
2023/04/27 05:57:25;;;;;;;1.37;1.17;;;16.10;99.90;;;;;;5045214;28;20673;-81
2023/04/27 05:59:51;;;;;;;1.73;1.33;;;17.30;99.90;;;;;;5047106;27;20752;-81
2023/04/27 06:02:18;;;;;;;1.87;1.50;;;18.00;99.90;;;;;;5047670;28;20201;-81
2023/04/27 06:04:45;;;;;;;1.57;1.47;;;18.00;99.90;;;;;;5050443;28;20218;-81
2023/04/27 06:07:12;;;;;;;0.90;0.90;;;18.40;99.90;;;;;;5044664;28;20276;-82
2023/04/27 06:09:41;;;;;;;2.73;1.30;;;20.00;99.90;;;;;;5047693;28;20260;-80
2023/04/27 06:12:08;;;;;;;2.30;1.20;;;20.50;99.90;;;;;;5049832;28;20198;-81
2023/04/27 06:14:35;;;;;;;1.40;1.30;;;18.80;99.90;;;;;;5051766;28;20592;-82
2023/04/27 06:17:02;;;;;;;5.17;4.20;;;17.70;99.90;;;;;;5044354;28;20221;-82
2023/04/27 06:19:28;;;;;;;6.10;4.07;;;17.90;99.90;;;;;;5046401;28;20268;-83
2023/04/27 06:21:54;;;;;;;3.20;2.90;;;17.60;99.90;;;;;;5047563;28;20206;-83
2023/04/27 06:24:21;;;;;;;6.23;5.53;;;17.50;99.90;;;;;;5049397;28;20262;-82
2023/04/27 06:26:48;;;;;;;7.57;6.50;;;16.10;99.90;;;;;;5047134;28;20219;-82
2023/04/27 06:29:13;;;;;;;11.03;7.27;;;16.00;99.90;;;;;;5053397;28;20872;-83
2023/04/27 06:31:40;;;;;;;18.57;13.43;;;15.80;99.90;;;;;;5046287;28;20221;-82
2023/04/27 06:34:06;;;;;;;5.97;5.37;;;15.40;99.90;;;;;;5041945;28;20445;-82
2023/04/27 06:36:32;;;;;;;8.03;7.23;;;16.00;99.90;;;;;;5040656;28;20703;-82
2023/04/27 06:38:58;;;;;;;2.20;1.87;;;17.60;99.90;;;;;;5043127;27;20905;-81
2023/04/27 06:41:25;;;;;;;4.07;3.07;;;19.00;99.90;;;;;;5048120;28;20271;-83
2023/04/27 06:43:51;;;;;;;3.87;2.17;;;18.70;99.90;;;;;;5050472;28;20675;-82
2023/04/27 06:46:17;;;;;;;4.80;1.53;;;19.00;99.90;;;;;;5047830;27;20238;-82
2023/04/27 06:48:46;;;;;;;1.73;1.27;;;19.70;99.90;;;;;;5046465;28;20224;-81
2023/04/27 06:51:12;;;;;;;2.00;1.23;;;19.70;99.90;;;;;;5031762;28;20615;-82
2023/04/27 06:53:38;;;;;;;3.53;1.33;;;19.60;99.90;;;;;;5050653;28;20544;-82
2023/04/27 06:56:06;;;;;;;1.00;1.00;;;19.20;99.90;;;;;;5046465;28;20229;-83
2023/04/27 06:58:31;;;;;;;1.70;1.53;;;18.90;99.90;;;;;;5046296;28;20221;-82
2023/04/27 07:00:57;;;;;;;1.17;1.07;;;19.80;99.90;;;;;;5049209;28;20244;-83
2023/04/27 07:03:23;;;;;;;1.60;1.30;;;21.20;99.90;;;;;;5044383;28;20217;-83
2023/04/27 07:05:50;;;;;;;2.27;1.07;;;21.40;99.90;;;;;;5045694;28;20363;-83
2023/04/27 07:08:16;;;;;;;4.50;1.30;;;20.40;99.90;;;;;;5047886;28;20233;-83
2023/04/27 07:10:41;;;;;;;2.23;1.20;;;19.20;99.90;;;;;;5044698;28;20229;-84
2023/04/27 07:13:07;;;;;;;1.87;1.47;;;19.60;99.90;;;;;;5046068;28;20252;-82
2023/04/27 07:15:33;;;;;;;1.70;1.20;;;19.40;99.90;;;;;;5043090;28;20299;-84
2023/04/27 07:17:59;;;;;;;0.87;0.87;;;18.80;99.90;;;;;;5046776;28;20194;-82
2023/04/27 07:20:25;;;;;;;3.10;1.03;;;18.30;99.90;;;;;;5051355;28;20193;-83
2023/04/27 07:22:51;;;;;;;1.20;1.10;;;18.20;99.90;;;;;;5048034;27;20225;-83
2023/04/27 07:25:17;;;;;;;1.80;0.93;;;18.50;99.90;;;;;;5039304;28;20295;-83
2023/04/27 07:27:44;;;;;;;2.40;1.63;;;18.20;99.90;;;;;;5042026;28;20561;-83
2023/04/27 07:30:12;;;;;;;2.37;1.00;;;17.90;99.90;;;;;;5047875;28;20732;-84
2023/04/27 07:32:39;;;;;;;1.73;1.20;;;18.10;99.90;;;;;;5042955;28;20709;-82
2023/04/27 07:35:05;;;;;;;4.13;1.33;;;19.60;99.90;;;;;;5048971;28;20217;-83
2023/04/27 07:37:31;;;;;;;1.17;0.97;;;19.40;99.90;;;;;;5047969;28;20316;-83
2023/04/27 07:39:58;;;;;;;1.17;1.17;;;19.10;99.90;;;;;;5048581;28;20300;-83
2023/04/27 07:42:24;;;;;;;6.67;1.33;;;19.80;99.90;;;;;;5047571;28;20787;-82
2023/04/27 07:44:51;;;;;;;3.60;1.30;;;20.00;99.90;;;;;;5050647;28;20288;-83
2023/04/27 07:47:17;;;;;;;3.53;1.00;;;19.70;99.90;;;;;;5046517;28;20320;-83
2023/04/27 07:49:47;;;;;;;1.20;1.10;;;20.20;99.90;;;;;;5047792;28;20744;-83
2023/04/27 07:52:13;;;;;;;1.37;1.27;;;20.80;99.90;;;;;;5051087;28;20774;-83
2023/04/27 07:54:39;;;;;;;3.27;1.30;;;21.50;99.90;;;;;;5044945;28;20237;-83
2023/04/27 07:57:12;;;;;;;1.20;1.20;;;21.00;99.90;;;;;;5046601;28;20198;-83
2023/04/27 07:59:38;;;;;;;1.23;1.07;;;19.80;99.90;;;;;;5045079;28;20181;-83
2023/04/27 08:02:04;;;;;;;2.37;1.90;;;18.00;99.90;;;;;;5045581;28;20264;-83
2023/04/27 08:04:30;;;;;;;1.53;1.43;;;18.80;99.90;;;;;;5043185;28;20825;-81
2023/04/27 08:06:55;;;;;;;6.07;1.70;;;19.50;99.90;;;;;;5043267;28;20312;-81
2023/04/27 08:09:22;;;;;;;2.17;1.43;;;19.70;99.90;;;;;;5047942;28;20253;-82
2023/04/27 08:11:48;;;;;;;2.73;1.70;;;18.90;99.90;;;;;;5043425;28;20336;-82
2023/04/27 08:14:14;;;;;;;1.60;1.50;;;17.90;99.90;;;;;;5043965;28;20259;-81
2023/04/27 08:16:40;;;;;;;4.13;1.53;;;18.10;99.90;;;;;;5046210;28;20221;-81
2023/04/27 08:19:08;;;;;;;1.57;1.20;;;16.80;99.90;;;;;;5043139;28;20217;-82
2023/04/27 08:21:35;;;;;;;1.90;1.23;;;17.10;99.90;;;;;;5046839;27;20683;-81
2023/04/27 08:24:02;;;;;;;1.93;1.83;;;16.70;99.90;;;;;;5045373;27;20183;-81
2023/04/27 08:26:27;;;;;;;2.30;1.50;;;18.10;99.90;;;;;;5039533;28;20214;-80
2023/04/27 08:28:55;;;;;;;1.33;1.10;;;19.60;99.90;;;;;;5042338;28;20343;-81
2023/04/27 08:31:21;;;;;;;1.23;1.10;;;20.10;99.90;;;;;;5050729;28;20698;-81
2023/04/27 08:33:47;;;;;;;2.20;1.90;;;18.70;99.90;;;;;;5038938;28;20224;-82
2023/04/27 08:36:13;;;;;;;1.47;1.37;;;17.80;99.90;;;;;;5052310;27;20652;-83
2023/04/27 08:38:38;;;;;;;2.87;1.43;;;18.10;99.90;;;;;;5044251;28;20185;-82
2023/04/27 08:41:04;;;;;;;5.00;1.60;;;18.10;99.90;;;;;;5047552;28;20233;-82
2023/04/27 08:43:37;;;;;;;2.13;1.50;;;18.20;99.90;;;;;;5047004;27;20225;-82
2023/04/27 08:46:03;;;;;;;2.17;1.10;;;18.70;99.90;;;;;;5043896;28;20222;-82
2023/04/27 08:48:29;;;;;;;1.53;0.97;;;19.10;99.90;;;;;;5046709;28;20232;-82
2023/04/27 08:50:58;;;;;;;1.23;1.13;;;18.50;99.90;;;;;;5041154;28;20198;-82
2023/04/27 08:53:24;;;;;;;1.97;1.47;;;18.80;99.90;;;;;;5043000;28;20647;-82
2023/04/27 08:55:50;;;;;;;1.70;1.20;;;18.60;99.90;;;;;;5046401;27;20232;-82
2023/04/27 08:58:15;;;;;;;2.47;1.60;;;19.10;99.90;;;;;;5045611;28;20632;-82
2023/04/27 09:00:43;;;;;;;1.53;1.27;;;18.20;99.90;;;;;;5041946;28;20217;-82
2023/04/27 09:03:24;;;;;;;2.07;1.13;;;17.90;99.90;;;;;;5047009;27;20189;-82
2023/04/27 09:05:50;;;;;;;1.63;1.10;;;18.20;99.90;;;;;;5045746;28;20253;-81
2023/04/27 09:08:16;;;;;;;1.97;1.70;;;18.90;99.90;;;;;;5055059;28;20281;-82
2023/04/27 09:10:46;;;;;;;2.87;1.77;;;20.20;99.90;;;;;;5040055;28;20232;-82
2023/04/27 09:13:12;;;;;;;2.77;1.87;;;20.70;99.90;;;;;;5047044;27;20597;-83
2023/04/27 09:15:50;;;;;;;1.97;1.73;;;20.60;99.90;;;;;;5041580;28;20221;-82
2023/04/27 09:18:18;;;;;;;1.77;1.57;;;20.80;99.90;;;;;;5042771;28;20222;-81
2023/04/27 09:20:46;;;;;;;2.10;1.87;;;20.40;99.90;;;;;;5039007;28;20217;-81
2023/04/27 09:23:26;;;;;;;6.87;1.87;;;19.70;99.90;;;;;;5048736;28;20343;-82
2023/04/27 09:25:54;;;;;;;7.37;1.70;;;19.00;99.90;;;;;;5044014;28;20561;-82
2023/04/27 09:28:21;;;;;;;2.93;1.63;;;19.30;99.90;;;;;;5040385;28;20206;-82
2023/04/27 09:30:55;;;;;;;4.07;1.43;;;19.60;99.90;;;;;;5043068;28;20312;-81
2023/04/27 09:33:29;;;;;;;1.60;1.47;;;19.00;99.90;;;;;;5045501;27;20324;-82
2023/04/27 09:36:00;;;;;;;2.67;1.57;;;18.70;99.90;;;;;;5051032;28;20181;-81
2023/04/27 09:38:26;;;;;;;2.23;1.63;;;17.40;99.90;;;;;;5047349;28;20724;-81
2023/04/27 09:40:53;;;;;;;1.23;1.13;;;17.30;99.90;;;;;;5041480;28;20217;-82
2023/04/27 09:43:19;;;;;;;1.90;1.63;;;16.80;99.90;;;;;;5046880;27;20225;-81
2023/04/27 09:45:45;;;;;;;3.23;1.50;;;16.80;99.90;;;;;;5047002;28;20641;-81
2023/04/27 09:48:11;;;;;;;3.63;2.53;;;15.80;99.90;;;;;;5048976;28;20291;-81
2023/04/27 09:50:40;;;;;;;1.60;1.50;;;15.60;99.90;;;;;;5050565;28;20223;-81
2023/04/27 09:53:12;;;;;;;1.43;1.13;;;16.20;99.90;;;;;;5046476;28;20575;-81
2023/04/27 09:55:55;;;;;;;4.40;1.93;;;16.00;99.90;;;;;;5051387;28;21177;-81
2023/04/27 09:58:36;;;;;;;3.47;1.90;;;15.50;99.90;;;;;;5047177;27;20297;-81
2023/04/27 10:01:35;;;;;;;7.17;1.63;;;15.30;99.90;;;;;;5046771;28;21200;-81
2023/04/27 10:04:37;;;;;;;3.80;1.97;;;14.70;99.90;;;;;;5046008;28;20225;-81
2023/04/27 10:07:06;;;;;;;1.77;1.17;;;14.40;99.90;;;;;;5045581;27;20281;-80
2023/04/27 10:09:40;;;;;;;2.20;1.40;;;14.50;99.90;;;;;;5044187;28;20691;-81
2023/04/27 10:12:20;;;;;;;1.57;1.27;;;14.80;99.90;;;;;;5045641;28;20198;-81
2023/04/27 10:14:53;;;;;;;2.37;1.70;;;14.50;99.90;;;;;;5058722;28;20658;-81
2023/04/27 10:17:35;;;;;;;1.43;1.13;;;14.10;99.90;;;;;;5048978;28;20222;-81
2023/04/27 10:20:03;;;;;;;1.40;1.30;;;13.60;99.90;;;;;;5047757;28;20222;-81
2023/04/27 10:22:40;;;;;;;5.60;1.47;;;13.40;99.90;;;;;;5047527;28;20306;-82
2023/04/27 10:25:12;;;;;;;2.07;1.57;;;13.10;99.90;;;;;;5041859;28;20919;-81
2023/04/27 10:27:39;;;;;;;1.73;1.63;;;13.20;99.90;;;;;;5050384;27;20325;-81
2023/04/27 10:30:12;;;;;;;4.17;2.33;;;13.30;99.90;;;;;;5045478;28;20703;-80
2023/04/27 10:32:53;;;;;;;2.03;1.30;;;13.40;99.90;;;;;;5041739;28;20276;-81
2023/04/27 10:35:20;;;;;;;3.57;1.77;;;13.80;99.90;;;;;;5045259;28;20293;-80
2023/04/27 10:37:46;;;;;;;2.20;1.50;;;14.00;99.90;;;;;;5048619;28;20232;-82
2023/04/27 10:40:13;;;;;;;1.40;1.10;;;14.50;99.90;;;;;;5046098;28;20248;-82
2023/04/27 10:42:44;;;;;;;4.73;1.90;;;15.40;99.90;;;;;;5040407;28;20276;-82
2023/04/27 10:45:12;;;;;;;1.80;1.53;;;15.50;99.90;;;;;;5044051;28;20201;-82
2023/04/27 10:47:42;;;;;;;1.40;1.30;;;14.90;99.90;;;;;;5044442;28;20177;-82
2023/04/27 10:50:13;;;;;;;2.93;1.47;;;14.30;99.90;;;;;;5044960;27;20220;-82
2023/04/27 10:52:42;;;;;;;5.50;1.50;;;13.90;99.90;;;;;;5046425;28;20241;-81
2023/04/27 10:55:22;;;;;;;4.37;1.60;;;13.30;99.90;;;;;;5047682;27;20210;-82
2023/04/27 10:57:54;;;;;;;3.33;1.10;;;12.90;99.90;;;;;;5041647;28;20325;-82
2023/04/27 11:00:31;;;;;;;1.40;1.30;;;12.80;99.90;;;;;;5045237;27;20270;-81
2023/04/27 11:03:11;;;;;;;1.03;0.93;;;12.90;99.90;;;;;;5050432;28;20589;-83
2023/04/27 11:05:37;;;;;;;2.40;2.10;;;12.80;99.90;;;;;;5047490;28;20212;-82
2023/04/27 11:08:05;;;;;;;1.40;1.30;;;12.20;99.90;;;;;;5048629;28;20586;-82
2023/04/27 11:10:31;;;;;;;1.30;0.73;;;11.80;99.90;;;;;;5050842;28;20914;-82
2023/04/27 11:12:57;;;;;;;1.47;0.90;;;11.30;99.90;;;;;;5046586;28;20316;-82
2023/04/27 11:15:23;;;;;;;0.93;0.80;;;11.00;99.90;;;;;;5047499;28;20221;-82
2023/04/27 11:17:50;;;;;;;1.73;1.37;;;11.10;99.90;;;;;;5043848;28;21042;-82
2023/04/27 11:20:24;;;;;;;1.90;1.60;;;11.30;99.90;;;;;;5049539;28;20229;-83
2023/04/27 11:22:50;;;;;;;0.70;0.70;;;11.40;99.90;;;;;;5045554;28;20251;-83
2023/04/27 11:25:16;;;;;;;1.23;1.00;;;11.40;99.90;;;;;;5047423;28;20218;-82
2023/04/27 11:27:41;;;;;;;1.20;1.10;;;11.50;99.90;;;;;;5045252;28;20229;-82
2023/04/27 11:30:20;;;;;;;1.40;1.10;;;11.90;99.90;;;;;;5046445;28;20182;-82
2023/04/27 11:32:46;;;;;;;1.30;1.20;;;12.10;99.90;;;;;;5049616;28;20173;-82
2023/04/27 11:35:12;;;;;;;2.93;1.20;;;12.40;99.90;;;;;;5044840;28;20218;-84
2023/04/27 11:37:38;;;;;;;0.60;0.60;;;13.10;99.90;;;;;;5038383;28;20796;-83
2023/04/27 11:40:04;;;;;;;2.80;1.40;;;13.10;99.90;;;;;;5047213;28;20340;-83
2023/04/27 11:42:30;;;;;;;1.97;1.63;;;13.70;99.90;;;;;;5045170;27;20272;-82
2023/04/27 11:45:14;;;;;;;2.33;1.33;;;14.20;99.90;;;;;;5044882;28;20767;-82
2023/04/27 11:47:46;;;;;;;1.70;1.60;;;14.60;99.90;;;;;;5043541;28;20190;-81
2023/04/27 11:50:11;;;;;;;1.73;1.37;;;14.80;99.90;;;;;;5043708;28;20268;-83
2023/04/27 11:52:39;;;;;;;1.63;1.40;;;13.90;99.90;;;;;;5038193;28;20337;-82
2023/04/27 11:55:14;;;;;;;1.63;1.07;;;13.60;99.90;;;;;;5045373;28;20644;-82
2023/04/27 11:57:40;;;;;;;1.87;1.17;;;13.00;99.90;;;;;;5051421;28;20270;-81
2023/04/27 12:00:09;;;;;;;2.97;1.10;;;13.10;99.90;;;;;;5049860;27;20189;-84
2023/04/27 12:02:36;;;;;;;1.17;1.07;;;13.00;99.90;;;;;;5053286;28;20223;-83
2023/04/27 12:05:03;;;;;;;1.60;1.50;;;12.90;99.90;;;;;;5045670;28;20226;-84
2023/04/27 12:07:29;;;;;;;1.00;1.00;;;13.00;99.90;;;;;;5050975;28;20229;-85
2023/04/27 12:09:55;;;;;;;2.83;1.20;;;13.00;99.90;;;;;;5049348;28;21081;-83
2023/04/27 12:12:22;;;;;;;1.63;1.53;;;12.90;99.90;;;;;;5050556;28;20237;-83
2023/04/27 12:14:49;;;;;;;3.60;1.10;;;12.80;99.90;;;;;;5047488;28;20543;-84
2023/04/27 12:17:14;;;;;;;1.03;0.97;;;13.00;99.90;;;;;;5048234;27;20213;-84
2023/04/27 12:19:41;;;;;;;2.33;1.37;;;13.00;99.90;;;;;;5050960;28;20279;-83
2023/04/27 12:22:07;;;;;;;1.13;1.03;;;12.90;99.90;;;;;;5029618;28;20229;-83
2023/04/27 12:24:33;;;;;;;2.90;2.37;;;13.10;99.90;;;;;;5047826;27;20221;-84
2023/04/27 12:26:59;;;;;;;1.00;1.00;;;12.90;99.90;;;;;;5048242;28;20638;-83
2023/04/27 12:29:25;;;;;;;4.43;0.97;;;12.80;99.90;;;;;;5047770;28;20201;-85
2023/04/27 12:31:52;;;;;;;1.20;1.10;;;12.80;99.90;;;;;;5047464;28;20213;-84
2023/04/27 12:34:18;;;;;;;0.60;0.60;;;12.80;99.90;;;;;;5052825;27;21010;-84
2023/04/27 12:36:43;;;;;;;4.73;1.40;;;12.70;99.90;;;;;;5051047;28;20221;-84
2023/04/27 12:39:21;;;;;;;2.37;1.60;;;12.80;99.90;;;;;;5050866;27;20274;-85
2023/04/27 12:41:48;;;;;;;0.73;0.67;;;12.80;99.90;;;;;;5051931;28;20192;-84
2023/04/27 12:44:15;;;;;;;2.17;1.00;;;12.60;99.90;;;;;;5050867;28;20222;-84
2023/04/27 12:46:42;;;;;;;1.57;1.47;;;12.60;99.90;;;;;;5049088;28;20236;-83
2023/04/27 12:49:09;;;;;;;1.93;1.57;;;12.90;99.90;;;;;;5048604;28;20305;-84
2023/04/27 12:51:35;;;;;;;3.40;1.87;;;12.90;99.90;;;;;;5050620;27;20282;-84